Gilbert Plains, Canada
Current Conditions -  °F | °C
As of 3:00 PM on Friday 31 Oct 2014 (Local Time) from CYDN Reporting Station
Clear Clear  
Wind Chill: 31°   Ceiling: Unl
Heat Index: 37°   Visibility: 9mi
Dew Point: 19°   Wind: 9mph
Humidity: 48%   Direction: 180°S
Pressure: 30.26"   Gusts: 21mph
Location:  51.13°N, 100.48°W
Report Text: CYDN 312000Z AUTO 18008G18KT 9SM CLR 03/M07 A3026 RMK SLP267
Loading
Personal Weather Stations






























Interactive Weather Map New forecast layout! Learn more

10-Day Weather Forecast

Advertisements
Track Severe Weather on mobile